Time;durP1;ratioP1;P1;durP2;ratioP2;P2;SDS_P1;SDS_P2;PMS_P1;PMS_P2;Temp;Humidity;BMP_temperature;BMP_pressure;BME280_temperature;BME280_humidity;BME280_pressure;Samples;Min_cycle;Max_cycle;Signal;HPM_P1;HPM_P2
2020/12/16 00:00:09;;;;;;;8.43;7.53;;;6.60;99.90;;;;;;5089559;28;20284;-72
2020/12/16 00:02:40;;;;;;;8.33;7.50;;;6.60;99.90;;;;;;5091371;28;20469;-73
2020/12/16 00:05:08;;;;;;;9.80;8.60;;;6.70;99.90;;;;;;5088803;28;20439;-72
2020/12/16 00:07:34;;;;;;;15.30;9.80;;;6.60;99.90;;;;;;5091043;28;20423;-73
2020/12/16 00:10:00;;;;;;;21.23;14.23;;;6.70;99.90;;;;;;5087314;28;20548;-73
2020/12/16 00:12:29;;;;;;;21.70;13.97;;;6.70;99.90;;;;;;5101981;28;20416;-72
2020/12/16 00:14:55;;;;;;;13.07;10.73;;;6.70;99.90;;;;;;5078402;28;20435;-72
2020/12/16 00:17:21;;;;;;;10.83;8.83;;;6.70;99.90;;;;;;5089556;28;20436;-72
2020/12/16 00:19:46;;;;;;;7.97;6.87;;;6.60;99.90;;;;;;5089260;28;20458;-72
2020/12/16 00:22:12;;;;;;;10.90;8.93;;;6.50;99.90;;;;;;5089750;28;20205;-73
2020/12/16 00:24:37;;;;;;;11.27;8.10;;;6.50;99.90;;;;;;5089717;28;20174;-73
2020/12/16 00:27:03;;;;;;;16.60;9.23;;;6.40;99.90;;;;;;5090929;28;20651;-73
2020/12/16 00:29:29;;;;;;;18.60;9.80;;;6.30;99.90;;;;;;5090203;28;20177;-72
2020/12/16 00:31:54;;;;;;;12.23;9.03;;;6.20;99.90;;;;;;5090717;28;20185;-72
2020/12/16 00:34:20;;;;;;;19.80;11.10;;;6.40;99.90;;;;;;5091637;28;20224;-72
2020/12/16 00:36:45;;;;;;;15.67;10.13;;;6.40;99.90;;;;;;5091450;28;20200;-72
2020/12/16 00:39:11;;;;;;;15.67;10.80;;;6.40;99.90;;;;;;5094399;28;20177;-72
2020/12/16 00:41:37;;;;;;;11.60;9.00;;;6.50;99.90;;;;;;5094034;28;20201;-72
2020/12/16 00:44:04;;;;;;;14.77;10.77;;;6.40;99.90;;;;;;5092066;28;20170;-72
2020/12/16 00:46:30;;;;;;;13.90;10.00;;;6.30;99.90;;;;;;5093016;28;20459;-72
2020/12/16 00:48:57;;;;;;;13.30;11.13;;;6.40;99.90;;;;;;5094828;28;20519;-72
2020/12/16 00:51:22;;;;;;;18.00;11.30;;;6.50;99.90;;;;;;5090337;28;20783;-73
2020/12/16 00:53:48;;;;;;;15.77;9.90;;;6.30;99.90;;;;;;5093755;28;20426;-72
2020/12/16 00:56:14;;;;;;;14.67;9.40;;;6.50;99.90;;;;;;5093824;28;20259;-72
2020/12/16 00:58:40;;;;;;;11.90;10.70;;;6.70;99.90;;;;;;5094195;28;20395;-73
2020/12/16 01:01:06;;;;;;;11.37;8.67;;;6.80;99.90;;;;;;5093076;28;20276;-72
2020/12/16 01:03:32;;;;;;;14.13;9.43;;;6.80;99.90;;;;;;5094407;28;20738;-72
2020/12/16 01:05:58;;;;;;;10.50;9.40;;;6.90;99.90;;;;;;5093288;28;20445;-72
2020/12/16 01:08:24;;;;;;;11.30;9.53;;;6.90;99.90;;;;;;5093939;28;20912;-73
2020/12/16 01:10:50;;;;;;;10.30;9.30;;;7.00;99.90;;;;;;5093722;28;20447;-73
2020/12/16 01:13:16;;;;;;;10.77;8.77;;;6.90;99.90;;;;;;5093147;28;20189;-73
2020/12/16 01:15:42;;;;;;;11.07;9.00;;;6.90;99.90;;;;;;5092909;28;20781;-73
2020/12/16 01:18:08;;;;;;;10.73;9.50;;;6.90;99.90;;;;;;5099128;28;20443;-73
2020/12/16 01:20:34;;;;;;;11.77;9.33;;;6.90;99.90;;;;;;5093827;28;20197;-73
2020/12/16 01:22:59;;;;;;;12.47;9.60;;;6.90;99.90;;;;;;5098330;28;20197;-73
2020/12/16 01:25:25;;;;;;;10.83;8.60;;;6.90;99.90;;;;;;5093200;28;20482;-73
2020/12/16 01:27:55;;;;;;;9.47;8.47;;;6.90;99.90;;;;;;5094371;28;20165;-73
2020/12/16 01:30:21;;;;;;;11.10;9.93;;;6.90;99.90;;;;;;5096848;28;20197;-73
2020/12/16 01:32:50;;;;;;;10.17;9.23;;;6.90;99.90;;;;;;5099256;28;20414;-73
2020/12/16 01:35:16;;;;;;;11.17;9.97;;;6.90;99.90;;;;;;5095450;28;20185;-72
2020/12/16 01:37:41;;;;;;;17.20;9.50;;;6.90;99.90;;;;;;5092769;28;20443;-72
2020/12/16 01:40:09;;;;;;;12.80;10.27;;;6.90;99.90;;;;;;5091549;28;20734;-73
2020/12/16 01:42:35;;;;;;;14.10;11.57;;;6.80;99.90;;;;;;5092407;28;20224;-73
2020/12/16 01:45:06;;;;;;;12.43;10.23;;;6.80;99.90;;;;;;5092644;28;20435;-73
2020/12/16 01:47:32;;;;;;;16.30;10.80;;;6.80;99.90;;;;;;5082613;28;20534;-73
2020/12/16 01:49:58;;;;;;;13.27;10.70;;;6.80;99.90;;;;;;5082518;28;22182;-73
2020/12/16 01:52:26;;;;;;;13.33;10.60;;;6.80;99.90;;;;;;5088838;28;20534;-74
2020/12/16 01:54:54;;;;;;;12.13;10.10;;;6.80;99.90;;;;;;5086988;28;20181;-73
2020/12/16 01:57:22;;;;;;;12.50;10.90;;;6.80;99.90;;;;;;5095972;28;20848;-73
2020/12/16 01:59:50;;;;;;;11.13;10.00;;;6.80;99.90;;;;;;5098599;28;20439;-73
2020/12/16 02:02:18;;;;;;;14.33;10.77;;;6.80;99.90;;;;;;5097323;28;20447;-73
2020/12/16 02:04:45;;;;;;;13.30;9.60;;;6.90;99.90;;;;;;5097255;28;20404;-74
2020/12/16 02:07:12;;;;;;;12.23;10.60;;;7.00;99.90;;;;;;5095625;28;20419;-73
2020/12/16 02:09:45;;;;;;;13.47;10.47;;;7.00;99.90;;;;;;5093095;28;20901;-72
2020/12/16 02:12:17;;;;;;;11.33;9.47;;;7.10;99.90;;;;;;5091725;28;20529;-73
2020/12/16 02:14:43;;;;;;;11.27;9.73;;;7.20;99.90;;;;;;5091160;28;20411;-72
2020/12/16 02:17:10;;;;;;;14.00;10.63;;;7.20;99.90;;;;;;5084470;28;20449;-73
2020/12/16 02:19:46;;;;;;;14.80;11.90;;;7.30;99.90;;;;;;5092941;28;20406;-73
2020/12/16 02:22:12;;;;;;;11.70;10.50;;;7.30;99.90;;;;;;5092659;28;20500;-73
2020/12/16 02:25:02;;;;;;;13.97;12.57;;;7.30;99.90;;;;;;5090978;28;20418;-73
2020/12/16 02:27:29;;;;;;;12.80;9.60;;;7.30;99.90;;;;;;5092462;28;20416;-73
2020/12/16 02:29:55;;;;;;;16.80;10.97;;;7.40;99.90;;;;;;5092828;28;20431;-72
2020/12/16 02:32:27;;;;;;;11.30;9.60;;;7.40;99.90;;;;;;5091176;28;20423;-73
2020/12/16 02:34:54;;;;;;;11.53;9.83;;;7.50;99.90;;;;;;5087096;28;20462;-73
2020/12/16 02:37:20;;;;;;;12.00;10.50;;;7.50;99.90;;;;;;5091390;28;20442;-73
2020/12/16 02:39:46;;;;;;;12.80;9.93;;;7.50;99.90;;;;;;5092155;28;20440;-73
2020/12/16 02:42:13;;;;;;;11.80;10.23;;;7.60;99.90;;;;;;5091005;28;20197;-72
2020/12/16 02:44:38;;;;;;;10.43;9.33;;;7.50;99.90;;;;;;5094703;28;20436;-73
2020/12/16 02:47:06;;;;;;;11.90;9.60;;;7.50;99.90;;;;;;5095189;28;20427;-73
2020/12/16 02:49:31;;;;;;;13.40;10.57;;;7.50;99.90;;;;;;5095480;28;20178;-72
2020/12/16 02:51:59;;;;;;;12.47;10.20;;;7.30;99.90;;;;;;5097678;28;20414;-74
2020/12/16 02:54:25;;;;;;;12.90;10.20;;;7.30;99.90;;;;;;5093813;28;20231;-73
2020/12/16 02:56:53;;;;;;;12.00;10.17;;;7.30;99.90;;;;;;5095375;28;20431;-73
2020/12/16 02:59:23;;;;;;;21.20;11.60;;;7.20;99.90;;;;;;5093992;28;20467;-73
2020/12/16 03:01:54;;;;;;;12.97;10.37;;;7.10;99.90;;;;;;5095856;28;20542;-73
2020/12/16 03:04:21;;;;;;;12.13;8.90;;;7.00;99.90;;;;;;5095131;28;20431;-73
2020/12/16 03:06:48;;;;;;;11.63;9.70;;;7.00;99.90;;;;;;5095181;28;20428;-73
2020/12/16 03:09:17;;;;;;;12.83;9.70;;;7.10;99.90;;;;;;5096222;28;20462;-73
2020/12/16 03:11:43;;;;;;;14.27;11.17;;;7.10;99.90;;;;;;5095492;28;20443;-73
2020/12/16 03:14:09;;;;;;;13.33;11.07;;;7.00;99.90;;;;;;5094269;28;20435;-73
2020/12/16 03:16:35;;;;;;;18.60;10.60;;;7.00;99.90;;;;;;5093906;28;20486;-72
2020/12/16 03:19:01;;;;;;;20.03;12.13;;;6.90;99.90;;;;;;5091524;28;20396;-73
2020/12/16 03:21:28;;;;;;;111.67;20.43;;;6.80;99.90;;;;;;5091701;28;21005;-72
2020/12/16 03:23:54;;;;;;;17.90;9.70;;;6.80;99.90;;;;;;5085549;28;20443;-73
2020/12/16 03:26:20;;;;;;;13.53;9.80;;;6.80;99.90;;;;;;5082313;28;20940;-74
2020/12/16 03:28:46;;;;;;;19.63;12.30;;;6.90;99.90;;;;;;5083914;28;20553;-73
2020/12/16 03:31:13;;;;;;;15.80;11.50;;;6.80;99.90;;;;;;5092193;28;20447;-74
2020/12/16 03:33:43;;;;;;;24.37;11.90;;;6.90;99.90;;;;;;5094333;28;20497;-73
2020/12/16 03:36:14;;;;;;;77.90;15.63;;;6.90;99.90;;;;;;5093983;28;20431;-73
2020/12/16 03:38:40;;;;;;;23.23;12.33;;;6.90;99.90;;;;;;5095084;28;20431;-73
2020/12/16 03:41:06;;;;;;;132.13;20.90;;;6.80;99.90;;;;;;5095624;28;20960;-73
2020/12/16 03:43:31;;;;;;;64.13;14.60;;;6.70;99.90;;;;;;5092619;28;20469;-72
2020/12/16 03:45:57;;;;;;;41.77;10.37;;;6.70;99.90;;;;;;5090185;28;20169;-72
2020/12/16 03:48:22;;;;;;;38.97;11.17;;;6.50;99.90;;;;;;5091415;28;20177;-72
2020/12/16 03:50:48;;;;;;;142.13;15.97;;;6.40;99.90;;;;;;5091701;28;20261;-72
2020/12/16 03:53:13;;;;;;;120.33;14.60;;;6.40;99.90;;;;;;5090256;28;20668;-73
2020/12/16 03:55:39;;;;;;;71.73;12.23;;;6.30;99.90;;;;;;5091074;28;20177;-73
2020/12/16 03:58:05;;;;;;;97.10;15.53;;;6.30;99.90;;;;;;5087682;28;20173;-73
2020/12/16 04:00:30;;;;;;;35.03;11.17;;;6.20;99.90;;;;;;5091604;28;20547;-73
2020/12/16 04:02:56;;;;;;;54.50;14.00;;;6.20;99.90;;;;;;5091185;28;20243;-73
2020/12/16 04:05:21;;;;;;;86.87;14.20;;;6.10;99.90;;;;;;5091035;28;20622;-73
2020/12/16 04:07:47;;;;;;;65.53;12.73;;;6.00;99.90;;;;;;5090262;28;20209;-73
2020/12/16 04:10:13;;;;;;;143.37;17.67;;;6.10;99.90;;;;;;5090116;28;20193;-73
2020/12/16 04:12:38;;;;;;;63.50;14.23;;;6.10;99.90;;;;;;5095170;28;20698;-73
2020/12/16 04:15:04;;;;;;;33.67;12.40;;;6.20;99.90;;;;;;5092463;28;20260;-73
2020/12/16 04:17:34;;;;;;;22.83;11.63;;;6.00;99.90;;;;;;5094499;28;20533;-73
2020/12/16 04:20:00;;;;;;;15.33;11.60;;;6.20;99.90;;;;;;5095399;28;20534;-73
2020/12/16 04:22:27;;;;;;;12.47;9.73;;;6.20;99.90;;;;;;5095324;28;20885;-73
2020/12/16 04:24:53;;;;;;;14.00;9.77;;;6.30;99.90;;;;;;5093426;28;20795;-73
2020/12/16 04:27:19;;;;;;;12.63;8.70;;;6.40;99.90;;;;;;5094941;28;20441;-73
2020/12/16 04:29:45;;;;;;;14.00;9.97;;;6.40;99.90;;;;;;5094420;28;20185;-73
2020/12/16 04:32:10;;;;;;;22.80;9.90;;;6.30;99.90;;;;;;5090191;28;20209;-73
2020/12/16 04:34:36;;;;;;;12.70;10.07;;;6.40;99.90;;;;;;5090642;28;20469;-73
2020/12/16 04:37:03;;;;;;;13.80;9.53;;;6.30;99.90;;;;;;5093214;28;20574;-73
2020/12/16 04:39:29;;;;;;;10.83;9.17;;;6.20;99.90;;;;;;5093049;28;20436;-73
2020/12/16 04:41:55;;;;;;;9.27;7.43;;;6.20;99.90;;;;;;5094268;28;20611;-73
2020/12/16 04:44:21;;;;;;;10.73;7.97;;;6.30;99.90;;;;;;5092689;28;20518;-73
2020/12/16 04:46:48;;;;;;;10.37;8.27;;;6.30;99.90;;;;;;5092652;28;20565;-73
2020/12/16 04:49:14;;;;;;;12.53;8.80;;;6.40;99.90;;;;;;5094070;28;20196;-73
2020/12/16 04:51:44;;;;;;;11.23;9.47;;;6.40;99.90;;;;;;5094011;28;20444;-73
2020/12/16 04:54:11;;;;;;;9.93;7.30;;;6.40;99.90;;;;;;5092683;28;20427;-73
2020/12/16 04:56:37;;;;;;;11.50;7.13;;;6.30;99.90;;;;;;5093858;28;20881;-73
2020/12/16 04:59:04;;;;;;;10.97;8.50;;;6.30;99.90;;;;;;5094577;28;20420;-73
2020/12/16 05:01:31;;;;;;;11.43;8.40;;;6.30;99.90;;;;;;5094295;28;20442;-73
2020/12/16 05:03:56;;;;;;;8.80;7.57;;;6.30;99.90;;;;;;5093513;28;20435;-73
2020/12/16 05:06:35;;;;;;;10.50;8.10;;;6.30;99.90;;;;;;5094902;28;20396;-72
2020/12/16 05:09:08;;;;;;;14.40;9.43;;;6.30;99.90;;;;;;5086127;28;20181;-72
2020/12/16 05:11:38;;;;;;;11.30;7.37;;;6.10;99.90;;;;;;5086130;28;21003;-72
2020/12/16 05:14:12;;;;;;;17.00;8.33;;;6.00;99.90;;;;;;5079090;28;20423;-72
2020/12/16 05:16:57;;;;;;;17.10;8.17;;;6.00;99.90;;;;;;5094130;28;20488;-72
2020/12/16 05:19:42;;;;;;;14.50;8.50;;;6.00;99.90;;;;;;5091375;28;20427;-73
2020/12/16 05:22:17;;;;;;;15.87;8.33;;;6.00;99.90;;;;;;5093818;28;20439;-73
2020/12/16 05:24:45;;;;;;;11.57;9.53;;;6.00;99.90;;;;;;5085731;28;20462;-73
2020/12/16 05:27:19;;;;;;;22.30;8.00;;;6.10;99.90;;;;;;5088879;28;20466;-72
2020/12/16 05:29:45;;;;;;;16.37;7.47;;;6.00;99.90;;;;;;5093583;28;20419;-73
2020/12/16 05:32:21;;;;;;;11.27;6.73;;;6.00;99.90;;;;;;5093817;28;20784;-72
2020/12/16 05:34:47;;;;;;;8.47;5.90;;;5.90;99.90;;;;;;5092780;28;20431;-73
2020/12/16 05:37:30;;;;;;;7.20;6.50;;;5.80;99.90;;;;;;5093373;28;20415;-73
2020/12/16 05:40:00;;;;;;;10.53;6.87;;;5.80;99.90;;;;;;5090235;28;20889;-73
2020/12/16 05:42:27;;;;;;;8.70;6.80;;;5.80;99.90;;;;;;5093518;28;20463;-73
2020/12/16 05:45:05;;;;;;;7.63;6.17;;;5.80;99.90;;;;;;5092710;28;20427;-73
2020/12/16 05:47:31;;;;;;;9.17;7.30;;;5.80;99.90;;;;;;5096217;28;20798;-72
2020/12/16 05:49:56;;;;;;;8.13;6.23;;;5.80;99.90;;;;;;5097455;28;20443;-73
2020/12/16 05:52:22;;;;;;;6.80;6.20;;;5.80;99.90;;;;;;5096613;28;20181;-72
2020/12/16 05:54:50;;;;;;;7.77;6.50;;;5.80;99.90;;;;;;5095764;28;20170;-73
2020/12/16 05:57:21;;;;;;;8.67;6.53;;;5.80;99.90;;;;;;5095717;28;20220;-73
2020/12/16 06:00:10;;;;;;;7.50;6.80;;;5.70;99.90;;;;;;5097889;28;20461;-74
2020/12/16 06:02:41;;;;;;;9.70;7.50;;;5.70;99.90;;;;;;5092976;28;20455;-73
2020/12/16 06:05:08;;;;;;;9.63;7.23;;;5.70;99.90;;;;;;5091024;28;20434;-73
2020/12/16 06:07:39;;;;;;;10.87;8.30;;;5.70;99.90;;;;;;5096471;28;20420;-74
2020/12/16 06:10:07;;;;;;;12.40;8.87;;;5.30;99.90;;;;;;5097588;28;20420;-72
2020/12/16 06:12:37;;;;;;;15.57;10.20;;;5.30;99.90;;;;;;5096390;28;20477;-73
2020/12/16 06:15:15;;;;;;;13.03;9.93;;;5.30;99.90;;;;;;5091276;28;20478;-73
2020/12/16 06:17:47;;;;;;;13.40;10.87;;;5.40;99.90;;;;;;5088836;28;20598;-73
2020/12/16 06:20:15;;;;;;;23.23;11.63;;;5.50;99.90;;;;;;5093033;28;20976;-73
2020/12/16 06:22:43;;;;;;;19.73;13.40;;;5.50;99.90;;;;;;5094358;28;20452;-74
2020/12/16 06:25:14;;;;;;;18.53;12.37;;;5.60;99.90;;;;;;5094504;28;20943;-74
2020/12/16 06:27:50;;;;;;;18.60;12.30;;;5.50;99.90;;;;;;5096415;28;20442;-73
2020/12/16 06:30:17;;;;;;;17.43;12.00;;;5.50;99.90;;;;;;5093146;28;20419;-73
2020/12/16 06:32:46;;;;;;;15.73;11.50;;;5.60;99.90;;;;;;5091730;28;20486;-73
2020/12/16 06:35:19;;;;;;;25.63;12.17;;;5.70;99.90;;;;;;5091599;28;20793;-73
2020/12/16 06:37:46;;;;;;;19.57;13.30;;;5.80;99.90;;;;;;5089888;28;20802;-73
2020/12/16 06:40:45;;;;;;;24.97;13.40;;;5.80;99.90;;;;;;5092279;28;20946;-73
2020/12/16 06:43:47;;;;;;;50.20;16.80;;;5.90;99.90;;;;;;5088301;28;20459;-73
2020/12/16 06:46:30;;;;;;;23.50;13.33;;;5.90;99.90;;;;;;5048613;28;20458;-73
2020/12/16 06:48:59;;;;;;;26.40;15.40;;;5.90;99.90;;;;;;5087353;28;20447;-72
2020/12/16 06:51:26;;;;;;;20.07;14.67;;;6.00;99.90;;;;;;5091696;28;20534;-72
2020/12/16 06:54:08;;;;;;;18.97;14.63;;;6.00;99.90;;;;;;5091050;28;20431;-72
2020/12/16 06:56:34;;;;;;;28.30;14.93;;;6.10;99.90;;;;;;5090855;28;20438;-72
2020/12/16 06:59:00;;;;;;;20.70;14.07;;;6.20;99.90;;;;;;5091796;28;20435;-73
2020/12/16 07:01:26;;;;;;;22.57;14.73;;;6.20;99.90;;;;;;5094581;28;20501;-72
2020/12/16 07:03:52;;;;;;;22.40;14.00;;;6.20;99.90;;;;;;5092379;28;21001;-73
2020/12/16 07:06:27;;;;;;;23.10;14.73;;;6.30;99.90;;;;;;5091673;28;20477;-73
2020/12/16 07:09:20;;;;;;;21.80;14.50;;;6.20;99.90;;;;;;5089654;28;20435;-73
2020/12/16 07:11:50;;;;;;;24.43;14.47;;;6.20;99.90;;;;;;5088531;28;20859;-73
2020/12/16 07:14:18;;;;;;;24.60;15.00;;;6.30;99.90;;;;;;5091548;28;20416;-73
2020/12/16 07:16:45;;;;;;;25.10;16.60;;;6.30;99.90;;;;;;5090982;28;20836;-73
2020/12/16 07:19:13;;;;;;;26.63;17.83;;;6.30;99.90;;;;;;5089355;28;21041;-72
2020/12/16 07:21:40;;;;;;;23.37;17.23;;;6.40;99.90;;;;;;5090163;28;20444;-73
2020/12/16 07:24:12;;;;;;;32.63;18.10;;;6.40;99.90;;;;;;5092280;28;20767;-72
2020/12/16 07:26:53;;;;;;;25.30;15.80;;;6.40;99.90;;;;;;5090875;28;20427;-73
2020/12/16 07:29:37;;;;;;;21.90;14.87;;;6.40;99.90;;;;;;5090638;28;20554;-74
2020/12/16 07:32:10;;;;;;;41.60;14.57;;;6.50;99.90;;;;;;5090982;28;20435;-73
2020/12/16 07:34:46;;;;;;;43.57;13.90;;;6.40;99.90;;;;;;5092229;28;20759;-72
2020/12/16 07:37:13;;;;;;;44.17;13.93;;;6.50;99.90;;;;;;5090500;28;20458;-73
2020/12/16 07:39:50;;;;;;;353.33;29.67;;;6.30;99.90;;;;;;5090604;28;20435;-73
2020/12/16 07:42:24;;;;;;;60.93;14.90;;;6.30;99.90;;;;;;5086245;28;20955;-72
2020/12/16 07:44:49;;;;;;;112.87;15.73;;;6.20;99.90;;;;;;5088617;28;21108;-73
2020/12/16 07:47:17;;;;;;;118.13;16.03;;;6.30;99.90;;;;;;5089399;28;20427;-73
2020/12/16 07:49:43;;;;;;;184.97;20.83;;;6.10;99.90;;;;;;5095268;28;20515;-73
2020/12/16 07:52:09;;;;;;;225.87;22.60;;;5.80;99.90;;;;;;5095018;28;20441;-72
2020/12/16 07:54:35;;;;;;;241.70;23.63;;;5.70;99.90;;;;;;5094858;28;20445;-72
2020/12/16 07:57:01;;;;;;;80.27;17.20;;;5.80;99.90;;;;;;5096020;28;20403;-73
2020/12/16 07:59:30;;;;;;;99.27;18.10;;;5.90;99.90;;;;;;5095185;28;20536;-72
2020/12/16 08:02:08;;;;;;;61.40;15.53;;;6.00;99.90;;;;;;5094775;28;20451;-73
2020/12/16 08:04:35;;;;;;;103.33;23.63;;;6.00;99.90;;;;;;5094782;28;20427;-72
2020/12/16 08:07:17;;;;;;;68.30;17.33;;;6.10;99.90;;;;;;5094935;28;20459;-72
2020/12/16 08:10:00;;;;;;;88.60;16.50;;;6.10;99.90;;;;;;5093782;28;20438;-73
2020/12/16 08:12:28;;;;;;;130.23;16.93;;;6.20;99.90;;;;;;5093196;28;20435;-73
2020/12/16 08:15:15;;;;;;;110.77;18.20;;;6.20;99.90;;;;;;5091132;28;20464;-72
2020/12/16 08:17:41;;;;;;;59.50;14.37;;;6.30;99.90;;;;;;5094122;28;20806;-72
2020/12/16 08:20:18;;;;;;;183.67;20.43;;;6.40;99.90;;;;;;5094071;28;20455;-72
2020/12/16 08:22:48;;;;;;;168.13;20.70;;;6.40;99.90;;;;;;5093789;28;20463;-72
2020/12/16 08:25:16;;;;;;;55.17;18.03;;;6.40;99.90;;;;;;5095335;28;20424;-72
2020/12/16 08:27:47;;;;;;;112.13;22.00;;;6.40;99.90;;;;;;5093691;28;20761;-72
2020/12/16 08:30:18;;;;;;;77.43;21.73;;;6.50;99.90;;;;;;5094467;28;20455;-72
2020/12/16 08:33:06;;;;;;;119.30;23.33;;;6.50;99.90;;;;;;5094079;28;20434;-72
2020/12/16 08:35:37;;;;;;;63.17;19.10;;;6.60;99.90;;;;;;5095218;28;20513;-72
2020/12/16 08:38:09;;;;;;;42.23;21.30;;;6.60;99.90;;;;;;5094540;28;20964;-72
2020/12/16 08:40:37;;;;;;;37.53;17.33;;;6.70;99.90;;;;;;5092953;28;20554;-72
2020/12/16 08:43:21;;;;;;;28.63;17.47;;;6.70;99.90;;;;;;5092399;28;20463;-72
2020/12/16 08:45:56;;;;;;;29.80;17.50;;;6.70;99.90;;;;;;5094250;28;20489;-73
2020/12/16 08:48:22;;;;;;;68.47;21.90;;;6.70;99.90;;;;;;5091259;28;20812;-72
2020/12/16 08:50:48;;;;;;;34.47;18.70;;;6.70;99.90;;;;;;5092416;28;20481;-73
2020/12/16 08:53:13;;;;;;;35.93;18.40;;;6.60;99.90;;;;;;5094397;28;20182;-73
2020/12/16 08:55:39;;;;;;;36.73;16.23;;;6.60;99.90;;;;;;5094811;28;20249;-73
2020/12/16 08:58:05;;;;;;;72.60;21.83;;;6.70;99.90;;;;;;5092344;28;20658;-72
2020/12/16 09:00:37;;;;;;;22.70;17.17;;;6.70;99.90;;;;;;5093251;28;20216;-73
2020/12/16 09:03:09;;;;;;;25.63;15.90;;;6.70;99.90;;;;;;5093007;28;20465;-72
2020/12/16 09:05:39;;;;;;;40.33;18.20;;;6.80;99.90;;;;;;5094880;28;20398;-72
2020/12/16 09:08:15;;;;;;;36.10;18.67;;;6.80;99.90;;;;;;5091422;28;20939;-73
2020/12/16 09:10:43;;;;;;;40.03;17.23;;;6.80;99.90;;;;;;5086577;28;20447;-72
2020/12/16 09:13:11;;;;;;;23.27;15.53;;;6.90;99.90;;;;;;5092432;28;20435;-73
2020/12/16 09:15:37;;;;;;;25.73;16.03;;;7.00;99.90;;;;;;5092440;28;20470;-72
2020/12/16 09:18:03;;;;;;;25.30;17.23;;;7.20;99.90;;;;;;5094641;28;20775;-72
2020/12/16 09:20:30;;;;;;;22.60;16.50;;;7.50;99.90;;;;;;5093421;28;20542;-73
2020/12/16 09:22:56;;;;;;;18.80;13.87;;;7.80;99.90;;;;;;5090013;28;21724;-72
2020/12/16 09:25:23;;;;;;;18.73;12.83;;;8.30;99.90;;;;;;5093018;28;20454;-72
2020/12/16 09:27:54;;;;;;;14.90;11.70;;;8.70;99.90;;;;;;5093734;28;20419;-73
2020/12/16 09:30:30;;;;;;;16.50;13.50;;;8.90;99.90;;;;;;5092016;28;20971;-72
2020/12/16 09:32:57;;;;;;;13.50;11.30;;;9.10;99.90;;;;;;5092104;28;21002;-73
2020/12/16 09:35:24;;;;;;;20.83;11.87;;;9.40;99.90;;;;;;5094338;28;20404;-72
2020/12/16 09:37:50;;;;;;;14.83;11.37;;;9.40;99.90;;;;;;5092714;28;20435;-73
2020/12/16 09:40:16;;;;;;;12.30;10.67;;;9.40;99.90;;;;;;5093298;28;20560;-73
2020/12/16 09:42:59;;;;;;;17.40;11.50;;;9.40;99.90;;;;;;5090076;28;20555;-72
2020/12/16 09:45:30;;;;;;;15.37;11.87;;;9.30;99.90;;;;;;5096414;28;20544;-72
2020/12/16 09:47:55;;;;;;;20.20;13.00;;;9.30;99.90;;;;;;5092010;28;20466;-72
2020/12/16 09:50:26;;;;;;;17.40;12.77;;;9.20;99.90;;;;;;5088608;28;20839;-72
2020/12/16 09:52:58;;;;;;;17.57;13.80;;;9.20;99.90;;;;;;5090648;28;20196;-72
2020/12/16 09:55:24;;;;;;;16.70;13.63;;;9.10;99.90;;;;;;5093720;28;20411;-72
2020/12/16 09:58:00;;;;;;;17.33;13.50;;;9.10;99.90;;;;;;5093463;28;20455;-72
2020/12/16 10:00:27;;;;;;;18.90;13.07;;;9.10;99.90;;;;;;5093248;28;20431;-72
2020/12/16 10:03:07;;;;;;;22.33;14.30;;;9.20;99.90;;;;;;5093148;28;20462;-72
2020/12/16 10:05:34;;;;;;;15.73;12.00;;;9.20;99.90;;;;;;5093372;28;20400;-73
2020/12/16 10:08:00;;;;;;;14.57;11.67;;;9.60;99.90;;;;;;5093001;28;20419;-72
2020/12/16 10:10:27;;;;;;;14.07;10.17;;;10.70;99.90;;;;;;5085153;28;20424;-73
2020/12/16 10:12:53;;;;;;;14.20;9.67;;;11.60;99.90;;;;;;5093352;28;20187;-72
2020/12/16 10:15:19;;;;;;;10.57;8.80;;;12.60;99.90;;;;;;5093488;28;20436;-72
2020/12/16 10:17:45;;;;;;;9.70;8.70;;;13.20;99.90;;;;;;5092446;28;20919;-72
2020/12/16 10:20:11;;;;;;;9.70;7.90;;;13.60;99.90;;;;;;5091903;28;20201;-72
2020/12/16 10:22:37;;;;;;;9.23;8.13;;;14.20;99.90;;;;;;5090206;28;20201;-72
2020/12/16 10:25:05;;;;;;;10.00;8.20;;;14.50;99.90;;;;;;5093338;28;20399;-73
2020/12/16 10:27:32;;;;;;;9.57;8.13;;;14.80;99.90;;;;;;5092394;28;20434;-73
2020/12/16 10:30:01;;;;;;;8.73;7.70;;;15.20;99.90;;;;;;5092687;28;20433;-72
2020/12/16 10:32:27;;;;;;;9.63;8.30;;;15.50;99.90;;;;;;5091996;28;20431;-72
2020/12/16 10:34:54;;;;;;;9.00;8.10;;;15.50;99.90;;;;;;5091291;28;20419;-73
2020/12/16 10:37:25;;;;;;;7.87;7.03;;;15.30;99.90;;;;;;5091345;28;20480;-73
2020/12/16 10:39:51;;;;;;;9.67;7.70;;;15.30;99.90;;;;;;5091731;28;20484;-72
2020/12/16 10:42:17;;;;;;;8.50;7.60;;;15.20;99.90;;;;;;5091279;28;20455;-72
2020/12/16 10:44:43;;;;;;;9.27;8.27;;;14.90;99.90;;;;;;5092730;28;20834;-73
2020/12/16 10:47:10;;;;;;;8.80;7.90;;;14.80;99.90;;;;;;5089855;28;20771;-72
2020/12/16 10:49:36;;;;;;;10.50;8.90;;;14.80;99.90;;;;;;5090624;28;20431;-73
2020/12/16 10:52:10;;;;;;;8.87;7.97;;;14.80;99.90;;;;;;5090980;28;20919;-72
2020/12/16 10:54:36;;;;;;;9.20;7.83;;;14.90;99.90;;;;;;5091066;28;20442;-72
2020/12/16 10:57:03;;;;;;;9.17;7.70;;;14.90;99.90;;;;;;5087553;28;20480;-72
2020/12/16 10:59:29;;;;;;;9.03;8.13;;;14.90;99.90;;;;;;5087146;28;20427;-72
2020/12/16 11:01:58;;;;;;;8.30;7.50;;;15.00;99.90;;;;;;5090804;28;20943;-72
2020/12/16 11:04:27;;;;;;;10.20;8.80;;;15.10;99.90;;;;;;5091961;28;20431;-72
2020/12/16 11:06:53;;;;;;;7.77;6.87;;;15.50;99.90;;;;;;5091805;28;20454;-72
2020/12/16 11:09:19;;;;;;;9.43;7.57;;;15.40;99.90;;;;;;5091146;28;20435;-72
2020/12/16 11:11:47;;;;;;;8.50;7.70;;;15.10;99.90;;;;;;5091166;28;20201;-72
2020/12/16 11:14:14;;;;;;;8.60;7.80;;;15.30;99.90;;;;;;5089386;28;20506;-72
2020/12/16 11:16:40;;;;;;;11.53;7.90;;;15.30;99.90;;;;;;5088152;28;20478;-73
2020/12/16 11:19:07;;;;;;;13.70;9.67;;;15.80;99.90;;;;;;5091658;28;20440;-72
2020/12/16 11:21:41;;;;;;;8.90;8.00;;;15.90;99.90;;;;;;5089986;28;20443;-72
2020/12/16 11:24:07;;;;;;;8.87;7.97;;;16.10;99.90;;;;;;5091527;28;20445;-72
2020/12/16 11:26:39;;;;;;;10.70;8.80;;;16.60;99.90;;;;;;5090676;28;20435;-72
2020/12/16 11:29:06;;;;;;;8.43;7.60;;;16.80;99.90;;;;;;5090583;28;20522;-72
2020/12/16 11:31:39;;;;;;;9.63;7.77;;;16.90;99.90;;;;;;5091101;28;20479;-72
2020/12/16 11:34:06;;;;;;;11.50;8.10;;;16.80;99.90;;;;;;5092028;28;20430;-72
2020/12/16 11:36:31;;;;;;;9.50;8.60;;;16.90;99.90;;;;;;5090165;28;20547;-73
2020/12/16 11:38:57;;;;;;;11.30;9.43;;;16.40;99.90;;;;;;5091367;28;20893;-72
2020/12/16 11:41:23;;;;;;;10.27;9.10;;;15.60;99.90;;;;;;5091290;28;20203;-72
2020/12/16 11:43:48;;;;;;;10.77;9.67;;;15.00;99.90;;;;;;5091964;28;20197;-72
2020/12/16 11:46:14;;;;;;;11.70;9.90;;;14.00;99.90;;;;;;5090766;28;20169;-73
2020/12/16 11:48:39;;;;;;;10.43;9.33;;;13.60;99.90;;;;;;5091566;28;20629;-72
2020/12/16 11:51:05;;;;;;;12.93;9.73;;;13.30;99.90;;;;;;5091693;28;20193;-72
2020/12/16 11:53:31;;;;;;;10.53;9.03;;;13.00;99.90;;;;;;5091689;28;20222;-72
2020/12/16 11:55:56;;;;;;;10.93;9.93;;;12.80;99.90;;;;;;5091757;28;20165;-73
2020/12/16 11:58:22;;;;;;;11.90;8.50;;;12.20;99.90;;;;;;5091791;28;20259;-72
2020/12/16 12:00:48;;;;;;;10.77;8.93;;;12.20;99.90;;;;;;5091600;28;20185;-71
2020/12/16 12:03:13;;;;;;;7.83;7.03;;;12.10;99.90;;;;;;5091172;28;20193;-71
2020/12/16 12:05:39;;;;;;;10.33;9.23;;;12.00;99.90;;;;;;5091617;28;20165;-72
2020/12/16 12:08:05;;;;;;;9.50;8.10;;;11.90;99.90;;;;;;5091872;28;20164;-71
2020/12/16 12:10:30;;;;;;;9.37;8.37;;;11.90;99.90;;;;;;5090155;28;20280;-73
2020/12/16 12:12:56;;;;;;;9.60;8.23;;;11.80;99.90;;;;;;5091603;28;20201;-72
2020/12/16 12:15:21;;;;;;;10.00;9.00;;;12.30;99.90;;;;;;5091876;28;20169;-72
2020/12/16 12:17:47;;;;;;;7.50;6.90;;;13.10;99.90;;;;;;5091474;28;20252;-72
2020/12/16 12:20:13;;;;;;;9.23;8.33;;;13.40;99.90;;;;;;5089852;28;20193;-73
2020/12/16 12:22:38;;;;;;;8.10;7.17;;;13.40;99.90;;;;;;5090256;28;20677;-72
2020/12/16 12:25:04;;;;;;;8.60;7.23;;;13.40;99.90;;;;;;5091874;28;20193;-72
2020/12/16 12:27:30;;;;;;;9.00;7.60;;;13.20;99.90;;;;;;5089440;28;20515;-72
2020/12/16 12:29:55;;;;;;;7.03;6.27;;;13.00;99.90;;;;;;5089970;28;20678;-72
2020/12/16 12:32:21;;;;;;;9.17;6.90;;;12.80;99.90;;;;;;5092964;28;20253;-72
2020/12/16 12:34:47;;;;;;;8.43;7.67;;;12.50;99.90;;;;;;5095477;28;20192;-72
2020/12/16 12:37:12;;;;;;;8.40;7.50;;;12.20;99.90;;;;;;5095058;28;20208;-72
2020/12/16 12:39:38;;;;;;;8.73;7.83;;;12.00;99.90;;;;;;5095276;28;20169;-72
2020/12/16 12:42:03;;;;;;;7.97;7.17;;;11.80;99.90;;;;;;5093532;28;20192;-71
2020/12/16 12:44:29;;;;;;;10.63;8.07;;;11.70;99.90;;;;;;5078059;28;20661;-72
2020/12/16 12:46:55;;;;;;;10.97;8.50;;;11.70;99.90;;;;;;5095028;28;20185;-72